createdAt,value
2023-05-21T00:04:19.976Z,36.76
2023-05-21T00:09:41.925Z,36.98
2023-05-21T00:15:04.689Z,37.14
2023-05-21T00:20:27.309Z,36.69
2023-05-21T00:25:50.686Z,37.20
2023-05-21T00:31:12.583Z,36.94
2023-05-21T00:36:34.946Z,36.84
2023-05-21T00:41:57.295Z,36.75
2023-05-21T00:47:19.144Z,37.14
2023-05-21T00:52:45.761Z,37.16
2023-05-21T00:58:08.513Z,37.17
2023-05-21T01:03:31.080Z,37.15
2023-05-21T01:08:53.015Z,36.78
2023-05-21T01:14:16.361Z,36.72
2023-05-21T01:19:38.332Z,37.17
2023-05-21T01:25:02.994Z,37.13
2023-05-21T01:30:25.498Z,37.07
2023-05-21T01:36:14.299Z,36.82
2023-05-21T01:41:41.949Z,37.11
2023-05-21T01:47:05.416Z,36.73
2023-05-21T01:52:27.416Z,37.07
2023-05-21T01:57:49.238Z,36.81
2023-05-21T02:03:12.151Z,36.75
2023-05-21T02:08:34.001Z,36.75
2023-05-21T02:13:57.670Z,37.02
2023-05-21T02:19:19.589Z,36.98
2023-05-21T02:24:41.594Z,36.73
2023-05-21T02:30:05.768Z,37.05
2023-05-21T02:35:27.752Z,37.25
2023-05-21T02:40:53.684Z,37.25
2023-05-21T02:46:15.632Z,37.04
2023-05-21T02:51:37.484Z,36.91
2023-05-21T02:56:59.396Z,37.28
2023-05-21T03:02:21.359Z,37.00
2023-05-21T03:07:43.852Z,37.31
2023-05-21T03:13:09.535Z,37.30
2023-05-21T03:18:31.708Z,36.92
2023-05-21T03:23:58.859Z,37.30
2023-05-21T03:29:21.025Z,36.96
2023-05-21T03:34:42.960Z,37.22
2023-05-21T03:40:06.242Z,36.94
2023-05-21T03:45:28.133Z,37.37
2023-05-21T03:50:50.458Z,37.09
2023-05-21T03:56:12.774Z,37.41
2023-05-21T04:01:35.196Z,37.48
2023-05-21T04:06:57.005Z,37.23
2023-05-21T04:12:20.549Z,37.49
2023-05-21T04:17:42.430Z,37.00
2023-05-21T04:23:04.306Z,37.42
2023-05-21T04:28:29.044Z,37.24
2023-05-21T04:33:50.999Z,37.55
2023-05-21T04:39:12.849Z,37.52
2023-05-21T04:44:34.692Z,37.29
2023-05-21T04:49:56.656Z,37.21
2023-05-21T04:55:19.349Z,37.18
2023-05-21T05:00:42.592Z,37.15
2023-05-21T05:06:04.905Z,37.18
2023-05-21T05:11:27.026Z,37.62
2023-05-21T05:16:48.930Z,37.29
2023-05-21T05:22:13.355Z,37.72
2023-05-21T05:27:37.708Z,37.43
2023-05-21T05:33:00.414Z,37.67
2023-05-21T05:38:22.423Z,37.37
2023-05-21T05:43:44.336Z,37.89
2023-05-21T05:49:06.196Z,37.80
2023-05-21T05:54:28.266Z,37.86
2023-05-21T05:59:50.201Z,37.82
2023-05-21T06:05:12.085Z,37.84
2023-05-21T06:10:33.904Z,37.67
2023-05-21T06:15:55.872Z,37.61
2023-05-21T06:21:17.672Z,37.83
2023-05-21T06:26:39.698Z,38.01
2023-05-21T06:32:01.975Z,38.43
2023-05-21T06:37:25.916Z,38.56
2023-05-21T06:42:48.558Z,38.25
2023-05-21T06:48:10.446Z,38.65
2023-05-21T06:53:32.310Z,38.58
2023-05-21T06:58:54.807Z,38.79
2023-05-21T07:04:16.640Z,38.77
2023-05-21T07:09:38.532Z,38.85
2023-05-21T07:15:00.419Z,39.18
2023-05-21T07:20:22.341Z,38.62
2023-05-21T07:25:44.208Z,38.79
2023-05-21T07:31:06.329Z,39.10
2023-05-21T07:36:28.223Z,39.08
2023-05-21T07:41:50.022Z,38.87
2023-05-21T07:47:11.918Z,39.20
2023-05-21T07:52:33.965Z,39.26
2023-05-21T07:57:57.097Z,39.50
2023-05-21T08:03:19.455Z,39.33
2023-05-21T08:08:41.436Z,38.72
2023-05-21T08:14:03.304Z,39.28
2023-05-21T08:19:25.176Z,39.25
2023-05-21T08:24:47.037Z,39.25
2023-05-21T08:30:11.792Z,39.10
2023-05-21T08:35:33.682Z,38.85
2023-05-21T08:40:56.191Z,39.13
2023-05-21T08:46:21.968Z,39.34
2023-05-21T08:51:47.644Z,38.92
2023-05-21T08:57:10.329Z,39.42
2023-05-21T09:02:35.493Z,38.98
2023-05-21T09:08:06.881Z,39.20
2023-05-21T09:13:32.456Z,39.09
2023-05-21T09:18:54.383Z,39.44
2023-05-21T09:24:16.357Z,39.16
2023-05-21T09:29:38.160Z,39.40
2023-05-21T09:35:08.158Z,39.26
2023-05-21T09:40:30.004Z,39.27
2023-05-21T09:45:54.180Z,39.47
2023-05-21T09:51:17.699Z,39.27
2023-05-21T09:56:40.108Z,39.69
2023-05-21T10:02:02.706Z,39.81
2023-05-21T10:07:27.374Z,39.68
2023-05-21T10:12:55.231Z,39.89
2023-05-21T10:18:19.403Z,40.26
2023-05-21T10:23:43.216Z,40.52
2023-05-21T10:29:05.200Z,40.23
2023-05-21T10:34:28.583Z,40.34
2023-05-21T10:39:53.414Z,40.55
2023-05-21T10:45:34.787Z,40.86
2023-05-21T10:51:08.781Z,40.60
2023-05-21T10:56:46.928Z,40.91
2023-05-21T11:02:11.707Z,40.76
2023-05-21T11:07:58.394Z,40.63
2023-05-21T11:13:21.998Z,40.65
2023-05-21T11:18:46.587Z,40.43
2023-05-21T11:24:11.042Z,40.81
2023-05-21T11:29:55.947Z,41.06
2023-05-21T11:35:17.776Z,40.78
2023-05-21T11:40:54.044Z,40.89
2023-05-21T11:46:16.048Z,40.69
2023-05-21T11:51:38.023Z,41.14
2023-05-21T11:57:03.852Z,40.94
2023-05-21T12:02:29.789Z,40.87
2023-05-21T12:07:52.170Z,41.18
2023-05-21T12:13:15.361Z,41.01
2023-05-21T12:18:37.503Z,40.79
2023-05-21T12:23:59.899Z,40.72
2023-05-21T12:29:23.852Z,41.10
2023-05-21T12:34:46.362Z,41.07
2023-05-21T12:40:09.151Z,41.15
2023-05-21T12:45:32.674Z,40.96
2023-05-21T12:50:54.515Z,41.28
2023-05-21T12:56:16.638Z,41.24
2023-05-21T13:01:38.513Z,41.12
2023-05-21T13:07:01.057Z,41.67
2023-05-21T13:12:26.280Z,41.44
2023-05-21T13:17:49.877Z,41.54
2023-05-21T13:23:12.532Z,41.61
2023-05-21T13:28:34.383Z,41.59
2023-05-21T13:33:56.254Z,41.70
2023-05-21T13:39:18.188Z,41.61
2023-05-21T13:44:40.041Z,41.85
2023-05-21T13:50:02.016Z,41.79
2023-05-21T13:55:23.935Z,41.96
2023-05-21T14:00:45.811Z,42.38
2023-05-21T14:06:08.609Z,42.18
2023-05-21T14:11:31.788Z,42.04
2023-05-21T14:16:53.776Z,42.28
2023-05-21T14:22:15.798Z,42.66
2023-05-21T14:27:38.437Z,42.44
2023-05-21T14:33:00.546Z,42.34
2023-05-21T14:38:22.749Z,42.34
2023-05-21T14:43:44.576Z,42.65
2023-05-21T14:49:06.452Z,42.65
2023-05-21T14:54:28.314Z,42.37
2023-05-21T14:59:50.144Z,42.63
2023-05-21T15:05:12.036Z,42.77
2023-05-21T15:10:33.879Z,42.83
2023-05-21T15:15:55.879Z,42.90
2023-05-21T15:21:17.787Z,42.72
2023-05-21T15:26:39.611Z,42.86
2023-05-21T15:32:05.294Z,42.46
2023-05-21T15:37:27.126Z,42.89
2023-05-21T15:42:49.085Z,42.71
2023-05-21T15:48:12.730Z,43.06
2023-05-21T15:53:34.628Z,42.86
2023-05-21T15:58:58.829Z,43.01
2023-05-21T16:04:20.751Z,43.15
2023-05-21T16:09:42.807Z,43.02
2023-05-21T16:15:05.688Z,43.33
2023-05-21T16:20:27.530Z,42.86
2023-05-21T16:25:49.462Z,43.20
2023-05-21T16:31:12.878Z,43.33
2023-05-21T16:36:35.648Z,43.41
2023-05-21T16:42:00.007Z,44.11
2023-05-21T16:47:21.941Z,43.98
2023-05-21T16:52:43.920Z,44.44
2023-05-21T16:58:06.669Z,44.69
2023-05-21T17:03:29.779Z,45.20
2023-05-21T17:08:51.692Z,45.15
2023-05-21T17:14:20.283Z,45.64
2023-05-21T17:19:48.773Z,45.39
2023-05-21T17:25:10.987Z,45.51
2023-05-21T17:30:32.911Z,45.53
2023-05-21T17:35:57.384Z,45.50
2023-05-21T17:41:19.372Z,45.56
2023-05-21T17:46:41.306Z,45.26
2023-05-21T17:52:04.773Z,45.24
2023-05-21T17:57:26.715Z,45.29
2023-05-21T18:02:48.584Z,45.58
2023-05-21T18:08:10.813Z,45.54
2023-05-21T18:13:32.729Z,45.50
2023-05-21T18:18:54.563Z,45.26
2023-05-21T18:24:16.556Z,45.49
2023-05-21T18:29:38.505Z,45.94
2023-05-21T18:35:00.762Z,45.81
2023-05-21T18:40:23.311Z,46.03
2023-05-21T18:45:46.554Z,45.72
2023-05-21T18:51:08.475Z,45.77
2023-05-21T18:56:30.581Z,45.74
2023-05-21T19:01:52.817Z,45.70
2023-05-21T19:07:16.155Z,45.60
2023-05-21T19:12:39.721Z,45.91
2023-05-21T19:18:02.049Z,45.65
2023-05-21T19:23:25.194Z,45.56
2023-05-21T19:28:48.116Z,45.69
2023-05-21T19:34:11.042Z,45.72
2023-05-21T19:39:43.050Z,45.79
2023-05-21T19:45:07.149Z,45.51
2023-05-21T19:50:29.233Z,45.43
2023-05-21T19:55:51.360Z,45.49
2023-05-21T20:01:16.656Z,45.30
2023-05-21T20:06:39.137Z,45.25
2023-05-21T20:12:01.069Z,45.44
2023-05-21T20:17:22.896Z,45.10
2023-05-21T20:22:44.818Z,45.27
2023-05-21T20:28:08.495Z,45.32
2023-05-21T20:33:34.597Z,45.11
2023-05-21T20:38:57.441Z,45.06
2023-05-21T20:44:19.410Z,45.34
2023-05-21T20:49:41.266Z,45.26
2023-05-21T20:55:04.682Z,45.86
2023-05-21T21:00:27.097Z,45.61
2023-05-21T21:05:49.088Z,45.43
2023-05-21T21:11:11.187Z,45.28
2023-05-21T21:16:33.111Z,45.57
2023-05-21T21:21:55.060Z,45.31
2023-05-21T21:27:16.926Z,44.89
2023-05-21T21:32:41.992Z,45.32
2023-05-21T21:38:05.194Z,45.03
2023-05-21T21:43:27.149Z,44.98
2023-05-21T21:48:48.978Z,45.13
2023-05-21T21:54:11.487Z,44.75
2023-05-21T21:59:34.136Z,44.55
2023-05-21T22:04:56.074Z,44.69
2023-05-21T22:10:18.647Z,44.74
2023-05-21T22:15:40.659Z,44.26
2023-05-21T22:21:02.824Z,44.45
2023-05-21T22:26:24.746Z,44.47
2023-05-21T22:31:46.671Z,44.38
2023-05-21T22:37:08.548Z,44.35
2023-05-21T22:42:30.714Z,44.45
2023-05-21T22:47:52.602Z,44.03
2023-05-21T22:53:14.488Z,43.91
2023-05-21T22:58:37.012Z,44.26
2023-05-21T23:03:58.785Z,44.09
2023-05-21T23:09:20.739Z,44.08
2023-05-21T23:14:42.548Z,43.94
2023-05-21T23:20:05.243Z,43.75
2023-05-21T23:25:27.057Z,43.77
2023-05-21T23:30:48.976Z,43.72
2023-05-21T23:36:10.824Z,44.14
2023-05-21T23:41:32.692Z,44.09
2023-05-21T23:46:54.584Z,43.78
2023-05-21T23:52:18.553Z,44.03
2023-05-21T23:57:41.292Z,43.77
